createdAt,value
2019-01-14T00:01:00.830Z,37.87
2019-01-14T00:03:30.422Z,32.83
2019-01-14T00:06:00.006Z,32.57
2019-01-14T00:08:30.238Z,35.90
2019-01-14T00:10:59.802Z,32.63
2019-01-14T00:13:29.377Z,35.00
2019-01-14T00:15:59.087Z,38.93
2019-01-14T00:18:28.671Z,36.40
2019-01-14T00:20:58.332Z,39.83
2019-01-14T00:23:28.027Z,39.50
2019-01-14T00:25:57.598Z,34.20
2019-01-14T00:28:27.201Z,38.10
2019-01-14T00:30:56.878Z,38.83
2019-01-14T00:33:26.540Z,41.53
2019-01-14T00:35:56.146Z,39.20
2019-01-14T00:38:25.849Z,43.07
2019-01-14T00:41:34.463Z,39.83
2019-01-14T00:44:04.187Z,104.23
2019-01-14T00:46:33.800Z,84.93
2019-01-14T00:49:03.397Z,68.50
2019-01-14T00:51:33.150Z,68.33
2019-01-14T00:54:02.755Z,29.37
2019-01-14T00:56:32.436Z,21.37
2019-01-14T00:59:02.087Z,18.57
2019-01-14T01:01:31.656Z,20.27
2019-01-14T01:04:01.237Z,21.53
2019-01-14T01:06:30.944Z,22.50
2019-01-14T01:09:00.618Z,22.33
2019-01-14T01:11:30.245Z,18.70
2019-01-14T01:13:59.952Z,23.90
2019-01-14T01:16:29.544Z,21.83
2019-01-14T01:18:59.128Z,22.17
2019-01-14T01:21:28.898Z,19.50
2019-01-14T01:23:58.502Z,18.93
2019-01-14T01:26:28.096Z,18.70
2019-01-14T01:28:57.925Z,16.00
2019-01-14T01:31:27.515Z,14.20
2019-01-14T01:33:57.120Z,14.07
2019-01-14T01:36:31.900Z,16.67
2019-01-14T01:38:58.302Z,13.37
2019-01-14T01:41:27.909Z,22.90
2019-01-14T01:43:57.762Z,21.60
2019-01-14T01:46:27.451Z,15.40
2019-01-14T01:48:57.091Z,16.20
2019-01-14T01:51:26.727Z,16.30
2019-01-14T01:53:56.273Z,16.53
2019-01-14T01:56:25.858Z,18.00
2019-01-14T01:58:55.587Z,18.23
2019-01-14T02:01:25.196Z,20.90
2019-01-14T02:03:54.766Z,19.87
2019-01-14T02:06:24.405Z,19.93
2019-01-14T02:08:54.479Z,22.57
2019-01-14T02:11:24.049Z,19.10
2019-01-14T02:13:53.770Z,18.93
2019-01-14T02:16:23.495Z,21.13
2019-01-14T02:18:53.088Z,28.73
2019-01-14T02:21:22.720Z,31.73
2019-01-14T02:23:52.348Z,28.30
2019-01-14T02:26:21.913Z,29.70
2019-01-14T02:28:51.552Z,27.03
2019-01-14T02:31:21.161Z,31.60
2019-01-14T02:33:50.738Z,29.37
2019-01-14T02:36:20.496Z,30.30
2019-01-14T02:38:50.115Z,28.43
2019-01-14T02:41:19.679Z,26.30
2019-01-14T02:43:49.322Z,23.03
2019-01-14T02:46:18.947Z,22.03
2019-01-14T02:48:48.560Z,17.83
2019-01-14T02:51:18.195Z,15.97
2019-01-14T02:53:47.811Z,13.27
2019-01-14T02:56:17.426Z,14.13
2019-01-14T02:58:47.070Z,14.27
2019-01-14T03:01:16.636Z,13.67
2019-01-14T03:03:46.234Z,14.03
2019-01-14T03:06:15.899Z,13.80
2019-01-14T03:08:45.531Z,15.43
2019-01-14T03:11:15.072Z,14.73
2019-01-14T03:13:44.803Z,14.40
2019-01-14T03:16:14.375Z,13.83
2019-01-14T03:18:44.006Z,12.00
2019-01-14T03:21:13.684Z,12.93
2019-01-14T03:23:43.253Z,13.07
2019-01-14T03:26:12.846Z,13.67
2019-01-14T03:28:42.498Z,15.27
2019-01-14T03:31:12.118Z,17.17
2019-01-14T03:33:41.691Z,14.90
2019-01-14T03:36:11.339Z,14.73
2019-01-14T03:38:41.019Z,14.70
2019-01-14T03:41:10.605Z,11.73
2019-01-14T03:43:40.241Z,13.47
2019-01-14T03:46:09.846Z,13.90
2019-01-14T03:48:39.447Z,13.70
2019-01-14T03:51:09.189Z,13.83
2019-01-14T03:53:38.757Z,13.07
2019-01-14T03:56:08.409Z,10.80
2019-01-14T03:58:38.162Z,11.90
2019-01-14T04:01:07.781Z,13.13
2019-01-14T04:03:37.335Z,11.17
2019-01-14T04:06:06.969Z,11.27
2019-01-14T04:08:36.606Z,11.97
2019-01-14T04:11:06.203Z,12.83
2019-01-14T04:13:35.852Z,15.97
2019-01-14T04:16:05.717Z,16.97
2019-01-14T04:18:35.346Z,12.40
2019-01-14T04:21:05.165Z,10.40
2019-01-14T04:23:34.742Z,9.23
2019-01-14T04:26:04.418Z,11.47
2019-01-14T04:28:34.045Z,9.60
2019-01-14T04:31:03.630Z,15.87
2019-01-14T04:33:33.218Z,19.47
2019-01-14T04:36:02.869Z,23.13
2019-01-14T04:38:32.809Z,19.33
2019-01-14T04:41:02.446Z,20.73
2019-01-14T04:43:32.109Z,27.17
2019-01-14T04:46:01.701Z,21.90
2019-01-14T04:48:31.304Z,25.07
2019-01-14T04:51:00.926Z,21.63
2019-01-14T04:53:30.534Z,25.83
2019-01-14T04:56:00.840Z,23.40
2019-01-14T04:58:30.614Z,23.77
2019-01-14T05:01:00.224Z,26.23
2019-01-14T05:03:29.792Z,26.07
2019-01-14T05:05:59.511Z,21.83
2019-01-14T05:08:29.093Z,19.10
2019-01-14T05:10:58.728Z,20.57
2019-01-14T05:13:28.400Z,26.63
2019-01-14T05:15:58.098Z,26.70
2019-01-14T05:18:27.761Z,24.40
2019-01-14T05:20:57.510Z,23.20
2019-01-14T05:23:27.096Z,25.30
2019-01-14T05:25:56.716Z,25.47
2019-01-14T05:28:26.375Z,24.50
2019-01-14T05:30:55.996Z,24.60
2019-01-14T05:33:25.589Z,29.83
2019-01-14T05:35:55.231Z,26.57
2019-01-14T05:38:24.823Z,30.03
2019-01-14T05:40:54.409Z,29.97
2019-01-14T05:43:24.158Z,27.30
2019-01-14T05:45:53.753Z,25.27
2019-01-14T05:48:23.343Z,25.73
2019-01-14T05:50:53.070Z,31.53
2019-01-14T05:53:22.674Z,28.33
2019-01-14T05:55:52.277Z,32.13
2019-01-14T05:58:21.911Z,32.20
2019-01-14T06:00:51.540Z,29.37
2019-01-14T06:03:21.147Z,26.70
2019-01-14T06:05:50.801Z,29.30
2019-01-14T06:08:20.551Z,26.53
2019-01-14T06:10:50.142Z,27.13
2019-01-14T06:13:19.790Z,27.77
2019-01-14T06:15:49.526Z,25.27
2019-01-14T06:18:19.097Z,23.03
2019-01-14T06:20:48.719Z,24.77
2019-01-14T06:23:18.333Z,25.47
2019-01-14T06:25:47.936Z,20.30
2019-01-14T06:28:17.637Z,22.90
2019-01-14T06:30:47.244Z,18.23
2019-01-14T06:33:16.868Z,25.37
2019-01-14T06:35:46.731Z,23.23
2019-01-14T06:38:16.454Z,23.27
2019-01-14T06:40:46.073Z,27.73
2019-01-14T06:43:15.800Z,31.63
2019-01-14T06:45:45.407Z,29.23
2019-01-14T06:48:15.023Z,24.87
2019-01-14T06:50:44.955Z,21.07
2019-01-14T06:53:14.545Z,21.40
2019-01-14T06:55:44.112Z,25.47
2019-01-14T06:58:13.974Z,24.60
2019-01-14T07:00:43.714Z,38.07
2019-01-14T07:03:13.518Z,35.73
2019-01-14T07:05:45.101Z,35.37
2019-01-14T07:08:14.728Z,32.73
2019-01-14T07:10:44.332Z,25.27
2019-01-14T07:13:14.279Z,24.80
2019-01-14T07:15:43.900Z,28.37
2019-01-14T07:18:13.476Z,27.47
2019-01-14T07:20:43.171Z,25.40
2019-01-14T07:23:12.885Z,30.47
2019-01-14T07:25:42.476Z,34.53
2019-01-14T07:28:12.163Z,31.50
2019-01-14T07:30:41.806Z,28.43
2019-01-14T07:33:11.447Z,29.33
2019-01-14T07:35:41.164Z,26.10
2019-01-14T07:38:10.765Z,22.97
2019-01-14T07:40:40.359Z,19.47
2019-01-14T07:43:10.114Z,19.57
2019-01-14T07:45:39.742Z,18.23
2019-01-14T07:48:09.456Z,19.97
2019-01-14T07:50:39.193Z,18.03
2019-01-14T07:53:08.918Z,23.77
2019-01-14T07:55:38.516Z,20.80
2019-01-14T07:58:08.208Z,27.63
2019-01-14T08:00:37.851Z,24.03
2019-01-14T08:03:07.455Z,31.00
2019-01-14T08:05:37.131Z,28.63
2019-01-14T08:08:13.793Z,25.00
2019-01-14T08:10:38.072Z,24.47
2019-01-14T08:13:07.760Z,25.20
2019-01-14T08:15:37.372Z,25.73
2019-01-14T08:18:07.165Z,21.60
2019-01-14T08:20:36.910Z,18.60
2019-01-14T08:23:06.507Z,19.73
2019-01-14T08:25:37.492Z,18.67
2019-01-14T08:28:07.128Z,20.10
2019-01-14T08:30:36.757Z,18.40
2019-01-14T08:33:06.358Z,18.93
2019-01-14T08:35:36.018Z,20.63
2019-01-14T08:38:05.716Z,23.27
2019-01-14T08:40:35.363Z,23.63
2019-01-14T08:43:05.038Z,21.73
2019-01-14T08:45:34.635Z,22.87
2019-01-14T08:48:04.474Z,22.97
2019-01-14T08:50:34.115Z,22.70
2019-01-14T08:53:03.735Z,20.23
2019-01-14T08:55:33.336Z,20.77
2019-01-14T08:58:03.076Z,21.87
2019-01-14T09:00:32.761Z,22.97
2019-01-14T09:03:02.371Z,23.57
2019-01-14T09:05:32.113Z,22.80
2019-01-14T09:08:01.697Z,19.73
2019-01-14T09:10:31.265Z,22.73
2019-01-14T09:13:01.135Z,19.60
2019-01-14T09:15:30.740Z,22.17
2019-01-14T09:18:02.986Z,21.93
2019-01-14T09:20:31.842Z,21.67
2019-01-14T09:23:01.400Z,20.67
2019-01-14T09:25:31.014Z,23.60
2019-01-14T09:28:00.653Z,26.07
2019-01-14T09:30:30.305Z,23.20
2019-01-14T09:32:59.965Z,25.60
2019-01-14T09:35:29.704Z,21.57
2019-01-14T09:37:59.295Z,24.07
2019-01-14T09:40:29.129Z,22.60
2019-01-14T09:42:58.725Z,24.33
2019-01-14T09:45:28.287Z,26.43
2019-01-14T09:47:57.897Z,27.63
2019-01-14T09:50:27.701Z,24.87
2019-01-14T09:52:58.870Z,23.23
2019-01-14T09:55:28.445Z,26.40
2019-01-14T09:57:58.094Z,23.13
2019-01-14T10:00:27.718Z,22.07
2019-01-14T10:02:58.304Z,26.67
2019-01-14T10:05:27.970Z,24.17
2019-01-14T10:07:59.959Z,22.07
2019-01-14T10:10:29.560Z,22.90
2019-01-14T10:12:59.249Z,22.27
2019-01-14T10:15:28.932Z,23.10
2019-01-14T10:18:01.500Z,21.40
2019-01-14T10:20:31.220Z,19.37
2019-01-14T10:23:00.918Z,23.50
2019-01-14T10:25:30.796Z,18.97
2019-01-14T10:28:00.446Z,18.90
2019-01-14T10:30:30.994Z,18.60
2019-01-14T10:33:00.684Z,17.97
2019-01-14T10:35:30.457Z,14.50
2019-01-14T10:38:00.052Z,14.10
2019-01-14T10:40:29.642Z,14.23
2019-01-14T10:42:59.392Z,16.97
2019-01-14T10:45:29.002Z,15.63
2019-01-14T10:47:58.622Z,16.47
2019-01-14T10:50:28.316Z,19.53
2019-01-14T10:52:57.933Z,18.13
2019-01-14T10:55:27.508Z,20.80
2019-01-14T10:57:57.567Z,30.87
2019-01-14T11:00:29.076Z,23.53
2019-01-14T11:02:59.599Z,25.33
2019-01-14T11:05:31.235Z,21.77
2019-01-14T11:08:01.016Z,21.27
2019-01-14T11:10:30.742Z,12.53
2019-01-14T11:13:00.528Z,12.93
2019-01-14T11:15:30.293Z,11.57
2019-01-14T11:18:00.349Z,10.50
2019-01-14T11:20:32.210Z,11.43
2019-01-14T11:23:02.585Z,11.77
2019-01-14T11:25:32.396Z,12.40
2019-01-14T11:28:02.435Z,12.63
2019-01-14T11:30:33.225Z,17.10
2019-01-14T11:33:02.972Z,15.20
2019-01-14T11:35:32.763Z,15.40
2019-01-14T11:38:02.395Z,17.20
2019-01-14T11:40:35.599Z,17.60
2019-01-14T11:43:05.582Z,15.73
2019-01-14T11:45:35.196Z,14.43
2019-01-14T11:48:04.963Z,13.80
2019-01-14T11:50:34.886Z,14.70
2019-01-14T11:53:04.749Z,12.40
2019-01-14T11:55:34.439Z,12.87
2019-01-14T11:58:04.221Z,11.90
2019-01-14T12:00:36.761Z,11.60
2019-01-14T12:03:05.363Z,11.90
2019-01-14T12:05:35.084Z,10.17
2019-01-14T12:08:04.967Z,10.93
2019-01-14T12:10:34.712Z,7.47
2019-01-14T12:13:04.577Z,8.50
2019-01-14T12:15:34.280Z,7.13
2019-01-14T12:18:04.006Z,8.30
2019-01-14T12:20:33.795Z,6.43
2019-01-14T12:23:03.632Z,5.17
2019-01-14T12:25:33.204Z,6.13
2019-01-14T12:28:02.950Z,5.97
2019-01-14T12:30:38.356Z,4.33
2019-01-14T12:33:08.258Z,8.37
2019-01-14T12:35:37.967Z,4.80
2019-01-14T12:38:07.799Z,5.93
2019-01-14T12:40:37.512Z,3.80
2019-01-14T12:43:07.217Z,4.27
2019-01-14T12:45:36.990Z,3.97
2019-01-14T12:48:06.893Z,4.00
2019-01-14T12:50:36.655Z,5.87
2019-01-14T12:53:06.422Z,4.53
2019-01-14T12:55:36.045Z,3.30
2019-01-14T12:58:05.843Z,4.97
2019-01-14T13:00:35.471Z,3.43
2019-01-14T13:03:05.326Z,3.13
2019-01-14T13:05:35.277Z,3.80
2019-01-14T13:08:04.991Z,3.53
2019-01-14T13:10:34.663Z,3.93
2019-01-14T13:13:04.388Z,3.00
2019-01-14T13:15:33.983Z,3.23
2019-01-14T13:18:05.527Z,4.27
2019-01-14T13:20:35.288Z,4.50
2019-01-14T13:23:05.049Z,4.97
2019-01-14T13:25:34.745Z,6.57
2019-01-14T13:28:04.760Z,5.20
2019-01-14T13:30:34.354Z,5.00
2019-01-14T13:33:04.144Z,6.10
2019-01-14T13:35:33.764Z,6.73
2019-01-14T13:38:03.426Z,6.63
2019-01-14T13:40:33.058Z,5.70
2019-01-14T13:43:03.231Z,5.03
2019-01-14T13:45:33.011Z,4.83
2019-01-14T13:48:03.063Z,4.53
2019-01-14T13:50:32.766Z,5.37
2019-01-14T13:53:02.615Z,7.17
2019-01-14T13:55:32.303Z,7.43
2019-01-14T13:58:01.974Z,6.50
2019-01-14T14:00:31.708Z,7.03
2019-01-14T14:03:01.401Z,7.67
2019-01-14T14:05:31.074Z,7.00
2019-01-14T14:08:00.830Z,5.43
2019-01-14T14:10:33.538Z,4.90
2019-01-14T14:13:03.238Z,5.40
2019-01-14T14:15:32.941Z,5.63
2019-01-14T14:18:02.804Z,5.73
2019-01-14T14:20:32.436Z,7.57
2019-01-14T14:23:02.172Z,7.90
2019-01-14T14:25:31.820Z,6.40
2019-01-14T14:28:01.473Z,6.77
2019-01-14T14:30:36.678Z,6.27
2019-01-14T14:33:06.533Z,6.53
2019-01-14T14:35:36.184Z,8.07
2019-01-14T14:38:07.233Z,5.77
2019-01-14T14:40:37.235Z,7.17
2019-01-14T14:43:06.983Z,7.67
2019-01-14T14:45:36.622Z,10.63
2019-01-14T14:48:07.010Z,7.57
2019-01-14T14:50:36.735Z,6.47
2019-01-14T14:53:06.511Z,6.73
2019-01-14T14:55:36.222Z,6.43
2019-01-14T14:58:06.014Z,8.43
2019-01-14T15:00:35.844Z,9.20
2019-01-14T15:03:05.929Z,10.43
2019-01-14T15:05:35.721Z,8.73
2019-01-14T15:08:05.598Z,9.40
2019-01-14T15:10:35.525Z,11.17
2019-01-14T15:13:05.323Z,10.60
2019-01-14T15:15:35.195Z,12.50
2019-01-14T15:18:04.905Z,12.57
2019-01-14T15:20:34.677Z,12.37
2019-01-14T15:23:04.452Z,10.60
2019-01-14T15:25:34.115Z,10.83
2019-01-14T15:28:03.722Z,10.67
2019-01-14T15:30:33.579Z,12.00
2019-01-14T15:33:03.142Z,13.97
2019-01-14T15:35:32.928Z,10.17
2019-01-14T15:38:02.715Z,10.10
2019-01-14T15:40:32.350Z,12.60
2019-01-14T15:43:01.925Z,11.90
2019-01-14T15:45:31.649Z,12.37
2019-01-14T15:48:01.280Z,11.53
2019-01-14T15:50:30.937Z,12.63
2019-01-14T15:53:00.682Z,10.90
2019-01-14T15:55:30.308Z,14.80
2019-01-14T15:57:59.922Z,14.70
2019-01-14T16:00:29.630Z,17.43
2019-01-14T16:02:59.354Z,14.77
2019-01-14T16:05:28.996Z,13.43
2019-01-14T16:07:58.735Z,17.63
2019-01-14T16:10:28.455Z,16.90
2019-01-14T16:12:58.149Z,19.37
2019-01-14T16:15:27.866Z,20.20
2019-01-14T16:17:57.914Z,22.10
2019-01-14T16:20:28.280Z,19.67
2019-01-14T16:22:58.235Z,25.27
2019-01-14T16:25:27.882Z,21.70
2019-01-14T16:27:57.654Z,21.10
2019-01-14T16:30:28.569Z,22.13
2019-01-14T16:32:58.468Z,22.40
2019-01-14T16:35:28.093Z,21.40
2019-01-14T16:37:57.838Z,21.43
2019-01-14T16:40:27.458Z,20.60
2019-01-14T16:42:57.086Z,19.87
2019-01-14T16:45:28.220Z,19.30
2019-01-14T16:47:58.137Z,18.37
2019-01-14T16:50:27.750Z,19.00
2019-01-14T16:52:57.523Z,17.87
2019-01-14T16:55:37.339Z,17.57
2019-01-14T16:58:07.040Z,16.90
2019-01-14T17:00:36.888Z,15.33
2019-01-14T17:03:06.708Z,15.17
2019-01-14T17:05:36.634Z,15.93
2019-01-14T17:08:06.578Z,18.90
2019-01-14T17:10:36.195Z,15.00
2019-01-14T17:13:06.406Z,13.97
2019-01-14T17:15:36.153Z,12.07
2019-01-14T17:18:06.104Z,12.53
2019-01-14T17:20:35.823Z,15.03
2019-01-14T17:23:05.726Z,12.00
2019-01-14T17:25:35.384Z,8.00
2019-01-14T17:28:05.256Z,10.90
2019-01-14T17:30:34.985Z,8.70
2019-01-14T17:33:04.908Z,10.57
2019-01-14T17:35:34.633Z,8.60
2019-01-14T17:38:04.347Z,9.60
2019-01-14T17:40:34.126Z,9.20
2019-01-14T17:43:03.860Z,9.70
2019-01-14T17:45:33.857Z,10.40
2019-01-14T17:48:03.901Z,13.20
2019-01-14T17:50:33.670Z,14.60
2019-01-14T17:53:03.959Z,11.57
2019-01-14T17:55:33.742Z,12.07
2019-01-14T17:58:03.695Z,14.63
2019-01-14T18:00:33.496Z,14.03
2019-01-14T18:03:03.235Z,9.40
2019-01-14T18:05:32.979Z,13.20
2019-01-14T18:08:02.779Z,12.40
2019-01-14T18:10:39.686Z,11.03
2019-01-14T18:13:04.588Z,9.10
2019-01-14T18:15:34.294Z,7.47
2019-01-14T18:18:04.122Z,4.70
2019-01-14T18:20:34.201Z,4.20
2019-01-14T18:23:04.054Z,4.90
2019-01-14T18:25:34.013Z,5.43
2019-01-14T18:28:05.038Z,5.53
2019-01-14T18:30:35.177Z,5.03
2019-01-14T18:33:05.245Z,4.40
2019-01-14T18:35:35.063Z,4.63
2019-01-14T18:38:04.846Z,5.03
2019-01-14T18:40:34.935Z,5.23
2019-01-14T18:43:06.727Z,4.87
2019-01-14T18:45:36.407Z,3.83
2019-01-14T18:48:06.488Z,4.07
2019-01-14T18:50:36.456Z,4.60
2019-01-14T18:53:06.383Z,4.87
2019-01-14T18:55:36.193Z,4.87
2019-01-14T18:58:05.940Z,5.73
2019-01-14T19:00:35.858Z,4.90
2019-01-14T19:03:05.975Z,5.33
2019-01-14T19:05:35.966Z,6.23
2019-01-14T19:08:05.852Z,5.93
2019-01-14T19:10:35.829Z,6.97
2019-01-14T19:13:06.652Z,5.50
2019-01-14T19:15:36.641Z,6.23
2019-01-14T19:18:06.530Z,6.10
2019-01-14T19:20:36.584Z,7.80
2019-01-14T19:23:06.445Z,6.53
2019-01-14T19:25:36.303Z,5.83
2019-01-14T19:28:06.268Z,5.27
2019-01-14T19:30:36.723Z,6.63
2019-01-14T19:33:06.521Z,6.13
2019-01-14T19:35:36.838Z,4.93
2019-01-14T19:38:06.858Z,5.00
2019-01-14T19:40:37.779Z,5.00
2019-01-14T19:43:08.087Z,5.20
2019-01-14T19:45:38.389Z,5.13
2019-01-14T19:48:09.430Z,4.70
2019-01-14T19:50:39.709Z,6.47
2019-01-14T19:53:09.651Z,5.90
2019-01-14T19:55:39.470Z,6.30
2019-01-14T19:58:09.518Z,5.50
2019-01-14T20:00:39.313Z,5.17
2019-01-14T20:03:09.206Z,5.17
2019-01-14T20:05:39.494Z,49.03
2019-01-14T20:08:09.930Z,4.83
2019-01-14T20:10:42.345Z,4.63
2019-01-14T20:13:12.253Z,4.90
2019-01-14T20:15:43.086Z,4.73
2019-01-14T20:18:12.847Z,4.77
2019-01-14T20:20:42.524Z,5.33
2019-01-14T20:23:12.526Z,5.73
2019-01-14T20:25:42.366Z,6.50
2019-01-14T20:28:12.344Z,6.53
2019-01-14T20:30:42.456Z,4.10
2019-01-14T20:33:12.731Z,3.83
2019-01-14T20:35:42.521Z,3.57
2019-01-14T20:38:12.411Z,3.70
2019-01-14T20:40:42.269Z,3.30
2019-01-14T20:43:12.079Z,3.80
2019-01-14T20:45:42.025Z,3.33
2019-01-14T20:48:11.893Z,4.27
2019-01-14T20:50:42.052Z,3.77
2019-01-14T20:53:13.817Z,4.23
2019-01-14T20:55:43.300Z,4.87
2019-01-14T20:58:13.246Z,4.90
2019-01-14T21:00:43.171Z,4.17
2019-01-14T21:03:12.992Z,4.83
2019-01-14T21:05:43.961Z,4.80
2019-01-14T21:08:13.814Z,4.63
2019-01-14T21:10:44.991Z,4.03
2019-01-14T21:13:15.907Z,4.83
2019-01-14T21:15:46.004Z,4.40
2019-01-14T21:18:16.848Z,3.93
2019-01-14T21:20:47.579Z,5.90
2019-01-14T21:23:17.909Z,4.80
2019-01-14T21:25:48.081Z,4.13
2019-01-14T21:28:17.973Z,4.60
2019-01-14T21:30:47.950Z,4.60
2019-01-14T21:33:17.835Z,5.17
2019-01-14T21:35:47.830Z,5.30
2019-01-14T21:38:17.444Z,4.90
2019-01-14T21:40:47.445Z,4.87
2019-01-14T21:43:17.110Z,4.47
2019-01-14T21:45:47.234Z,5.53
2019-01-14T21:48:17.574Z,5.97
2019-01-14T21:50:47.425Z,4.83
2019-01-14T21:53:17.186Z,5.67
2019-01-14T21:55:46.850Z,5.73
2019-01-14T21:58:18.907Z,5.13
2019-01-14T22:00:48.959Z,5.27
2019-01-14T22:03:18.859Z,5.47
2019-01-14T22:05:48.867Z,5.27
2019-01-14T22:08:18.567Z,4.83
2019-01-14T22:10:49.061Z,4.30
2019-01-14T22:13:19.083Z,6.60
2019-01-14T22:15:48.962Z,5.03
2019-01-14T22:18:18.908Z,4.93
2019-01-14T22:20:49.138Z,5.27
2019-01-14T22:23:19.311Z,5.37
2019-01-14T22:25:49.265Z,4.90
2019-01-14T22:28:19.507Z,6.77
2019-01-14T22:30:49.282Z,5.17
2019-01-14T22:33:19.551Z,5.50
2019-01-14T22:35:49.663Z,5.60
2019-01-14T22:38:20.178Z,5.33
2019-01-14T22:40:50.335Z,6.50
2019-01-14T22:43:21.091Z,7.60
2019-01-14T22:45:50.968Z,6.13
2019-01-14T22:48:21.287Z,5.87
2019-01-14T22:50:51.292Z,6.50
2019-01-14T22:53:21.346Z,6.43
2019-01-14T22:55:51.113Z,6.93
2019-01-14T22:58:21.064Z,6.67
2019-01-14T23:01:12.154Z,7.40
2019-01-14T23:03:42.354Z,6.80
2019-01-14T23:06:12.870Z,6.97
2019-01-14T23:08:42.895Z,9.37
2019-01-14T23:11:13.255Z,6.53
2019-01-14T23:13:43.249Z,6.73
2019-01-14T23:16:13.858Z,7.13
2019-01-14T23:18:43.810Z,6.57
2019-01-14T23:21:13.685Z,6.13
2019-01-14T23:23:43.462Z,6.53
2019-01-14T23:26:13.448Z,6.07
2019-01-14T23:28:43.280Z,7.10
2019-01-14T23:31:13.236Z,6.07
2019-01-14T23:33:43.727Z,6.00
2019-01-14T23:36:14.515Z,6.30
2019-01-14T23:38:44.400Z,5.73
2019-01-14T23:41:14.614Z,5.63
2019-01-14T23:43:45.046Z,5.47
2019-01-14T23:46:15.351Z,5.63
2019-01-14T23:48:45.363Z,5.63
2019-01-14T23:51:15.244Z,5.53
2019-01-14T23:53:45.688Z,5.77
2019-01-14T23:56:16.743Z,6.13
2019-01-14T23:58:47.156Z,5.07
